Forside
METAR-TAF:

METAR-TAF

Lufthavne :

Guilin, Kina

Breddekreds: 25-20N, længdekreds: 110-18E, højde: 166 m

Aktuelle vejr

Denne rapport blev lavet for 31 minutter siden, kl. 11:00 UTC
Vind 10 kt fra østnordøst
Temperatur 19°C
Fugtighed 73%
Tryk 1015 hPa
Sigt 10 km eller mere
Spredte skyer i en højde af 4300 ft
Brudte skyer i en højde af 6300 ft

METAR: ZGKL 171100Z 06005MPS 9999 SCT043 BKN063 19/14 Q1015 NOSIG

Tid: 19:31 (11:31 UTC)

Vejrudsigter

Denne rapport blev lavet for 8 timer og 20 minutter siden, kl. 03:11 UTC
Foreløbig gælder fra 17 på 06 UTC til 18 på 06 UTC
Vind 6 kt fra nordøst
Sigt 10 km eller mere
Spredte skyer i en højde af 3600 ft
Spredte skyer i en højde af 6000 ft

TAF: ZGKL 170311Z 1706/1806 05003MPS 9999 SCT036 SCT060 TX25/1708Z TN13/1723Z

Vejrobservationer og prognoser fra mere end 4000 lufthavne (METAR og TAF).

De gule og røde prikker repræsenterer de meteorologiske stationer.

Flyt musen over at se navnet på stationen.

Så klik over at se vejr observationer og prognoser.

At skifte det kort: Klik på de grønne knapper med et sort kors for at zoome ind; på den grønne knap med en bindestreg for at zoome ud; eller på de grønne pile for tilstødende kort.


METAR-TAF: